sensor_id;sensor_type;location;lat;lon;timestamp;temperature;humidity
44537;DHT22;30245;51.966;6.292;2022-08-24T00:00:18;28.40;50.60
44537;DHT22;30245;51.966;6.292;2022-08-24T00:02:45;28.40;50.70
44537;DHT22;30245;51.966;6.292;2022-08-24T00:05:11;28.40;50.70
44537;DHT22;30245;51.966;6.292;2022-08-24T00:07:36;28.40;50.80
44537;DHT22;30245;51.966;6.292;2022-08-24T00:10:05;28.40;50.90
44537;DHT22;30245;51.966;6.292;2022-08-24T00:12:31;28.40;50.90
44537;DHT22;30245;51.966;6.292;2022-08-24T00:14:57;28.40;50.90
44537;DHT22;30245;51.966;6.292;2022-08-24T00:17:22;28.40;50.90
44537;DHT22;30245;51.966;6.292;2022-08-24T00:19:48;28.30;50.90
44537;DHT22;30245;51.966;6.292;2022-08-24T00:22:14;28.40;51.10
44537;DHT22;30245;51.966;6.292;2022-08-24T00:24:39;28.40;51.10
44537;DHT22;30245;51.966;6.292;2022-08-24T00:27:06;28.30;51.10
44537;DHT22;30245;51.966;6.292;2022-08-24T00:29:32;28.30;51.20
44537;DHT22;30245;51.966;6.292;2022-08-24T00:31:59;28.20;51.20
44537;DHT22;30245;51.966;6.292;2022-08-24T00:34:25;28.20;51.40
44537;DHT22;30245;51.966;6.292;2022-08-24T00:36:52;28.10;51.50
44537;DHT22;30245;51.966;6.292;2022-08-24T00:39:18;28.10;51.70
44537;DHT22;30245;51.966;6.292;2022-08-24T00:41:49;28.00;51.70
44537;DHT22;30245;51.966;6.292;2022-08-24T00:44:16;28.00;51.80
44537;DHT22;30245;51.966;6.292;2022-08-24T00:52:03;28.00;51.90
44537;DHT22;30245;51.966;6.292;2022-08-24T00:54:32;27.90;52.00
44537;DHT22;30245;51.966;6.292;2022-08-24T00:57:04;27.90;52.20
44537;DHT22;30245;51.966;6.292;2022-08-24T00:59:40;27.90;53.00
44537;DHT22;30245;51.966;6.292;2022-08-24T01:02:10;27.90;52.50
44537;DHT22;30245;51.966;6.292;2022-08-24T01:04:42;27.80;52.50
44537;DHT22;30245;51.966;6.292;2022-08-24T01:07:10;27.80;52.60
44537;DHT22;30245;51.966;6.292;2022-08-24T01:09:36;27.70;52.60
44537;DHT22;30245;51.966;6.292;2022-08-24T01:12:02;27.70;52.70
44537;DHT22;30245;51.966;6.292;2022-08-24T01:14:28;27.70;52.80
44537;DHT22;30245;51.966;6.292;2022-08-24T01:16:54;27.70;52.80
44537;DHT22;30245;51.966;6.292;2022-08-24T01:19:49;27.60;52.90
44537;DHT22;30245;51.966;6.292;2022-08-24T01:24:53;27.60;53.10
44537;DHT22;30245;51.966;6.292;2022-08-24T01:27:19;27.60;53.10
44537;DHT22;30245;51.966;6.292;2022-08-24T01:29:46;27.50;53.20
44537;DHT22;30245;51.966;6.292;2022-08-24T01:32:12;27.40;53.30
44537;DHT22;30245;51.966;6.292;2022-08-24T01:34:38;27.40;53.50
44537;DHT22;30245;51.966;6.292;2022-08-24T01:37:04;27.30;53.70
44537;DHT22;30245;51.966;6.292;2022-08-24T01:39:39;27.30;53.80
44537;DHT22;30245;51.966;6.292;2022-08-24T01:42:05;27.30;54.00
44537;DHT22;30245;51.966;6.292;2022-08-24T01:44:33;27.30;54.10
44537;DHT22;30245;51.966;6.292;2022-08-24T01:46:59;27.20;54.10
44537;DHT22;30245;51.966;6.292;2022-08-24T01:49:28;27.20;54.20
44537;DHT22;30245;51.966;6.292;2022-08-24T01:51:54;27.20;54.20
44537;DHT22;30245;51.966;6.292;2022-08-24T01:54:20;27.20;54.30
44537;DHT22;30245;51.966;6.292;2022-08-24T01:56:46;27.20;54.40
44537;DHT22;30245;51.966;6.292;2022-08-24T01:59:12;27.20;54.40
44537;DHT22;30245;51.966;6.292;2022-08-24T02:01:43;27.20;54.50
44537;DHT22;30245;51.966;6.292;2022-08-24T02:04:10;27.20;54.50
44537;DHT22;30245;51.966;6.292;2022-08-24T02:06:36;27.20;54.40
44537;DHT22;30245;51.966;6.292;2022-08-24T02:09:02;27.30;54.50
44537;DHT22;30245;51.966;6.292;2022-08-24T02:11:28;27.30;54.50
44537;DHT22;30245;51.966;6.292;2022-08-24T02:13:54;27.30;54.60
44537;DHT22;30245;51.966;6.292;2022-08-24T02:16:20;27.30;54.60
44537;DHT22;30245;51.966;6.292;2022-08-24T02:18:45;27.30;54.60
44537;DHT22;30245;51.966;6.292;2022-08-24T02:21:12;27.30;54.70
44537;DHT22;30245;51.966;6.292;2022-08-24T02:23:40;27.30;54.80
44537;DHT22;30245;51.966;6.292;2022-08-24T02:26:07;27.30;54.80
44537;DHT22;30245;51.966;6.292;2022-08-24T02:28:33;27.20;54.80
44537;DHT22;30245;51.966;6.292;2022-08-24T02:30:59;27.10;54.80
44537;DHT22;30245;51.966;6.292;2022-08-24T02:33:25;27.10;54.90
44537;DHT22;30245;51.966;6.292;2022-08-24T02:35:51;27.10;55.00
44537;DHT22;30245;51.966;6.292;2022-08-24T02:38:19;27.10;55.10
44537;DHT22;30245;51.966;6.292;2022-08-24T02:40:45;27.00;55.10
44537;DHT22;30245;51.966;6.292;2022-08-24T02:43:11;27.10;55.20
44537;DHT22;30245;51.966;6.292;2022-08-24T02:45:43;27.10;55.20
44537;DHT22;30245;51.966;6.292;2022-08-24T02:48:09;27.00;55.10
44537;DHT22;30245;51.966;6.292;2022-08-24T02:50:44;27.10;55.10
44537;DHT22;30245;51.966;6.292;2022-08-24T02:53:11;27.10;55.20
44537;DHT22;30245;51.966;6.292;2022-08-24T02:55:39;27.00;55.20
44537;DHT22;30245;51.966;6.292;2022-08-24T02:58:06;27.00;55.20
44537;DHT22;30245;51.966;6.292;2022-08-24T03:00:32;27.00;55.30
44537;DHT22;30245;51.966;6.292;2022-08-24T03:03:00;27.00;55.40
44537;DHT22;30245;51.966;6.292;2022-08-24T03:05:27;26.90;55.30
44537;DHT22;30245;51.966;6.292;2022-08-24T03:07:52;26.90;55.40
44537;DHT22;30245;51.966;6.292;2022-08-24T03:10:19;26.90;55.50
44537;DHT22;30245;51.966;6.292;2022-08-24T03:12:45;26.90;55.60
44537;DHT22;30245;51.966;6.292;2022-08-24T03:15:11;26.80;55.60
44537;DHT22;30245;51.966;6.292;2022-08-24T03:17:38;26.80;55.70
44537;DHT22;30245;51.966;6.292;2022-08-24T03:20:07;26.80;55.70
44537;DHT22;30245;51.966;6.292;2022-08-24T03:22:35;26.80;55.70
44537;DHT22;30245;51.966;6.292;2022-08-24T03:25:00;26.80;55.70
44537;DHT22;30245;51.966;6.292;2022-08-24T03:27:26;26.70;55.80
44537;DHT22;30245;51.966;6.292;2022-08-24T03:29:52;26.70;55.80
44537;DHT22;30245;51.966;6.292;2022-08-24T03:32:17;26.70;55.90
44537;DHT22;30245;51.966;6.292;2022-08-24T03:34:43;26.70;56.00
44537;DHT22;30245;51.966;6.292;2022-08-24T03:37:09;26.70;56.10
44537;DHT22;30245;51.966;6.292;2022-08-24T03:39:34;26.70;56.10
44537;DHT22;30245;51.966;6.292;2022-08-24T03:42:00;26.60;56.10
44537;DHT22;30245;51.966;6.292;2022-08-24T03:44:25;26.60;56.20
44537;DHT22;30245;51.966;6.292;2022-08-24T03:46:52;26.50;56.20
44537;DHT22;30245;51.966;6.292;2022-08-24T03:49:18;26.50;56.20
44537;DHT22;30245;51.966;6.292;2022-08-24T03:51:44;26.50;56.40
44537;DHT22;30245;51.966;6.292;2022-08-24T03:54:11;26.40;56.40
44537;DHT22;30245;51.966;6.292;2022-08-24T03:56:37;26.40;56.40
44537;DHT22;30245;51.966;6.292;2022-08-24T03:59:04;26.40;56.50
44537;DHT22;30245;51.966;6.292;2022-08-24T04:01:30;26.40;56.50
44537;DHT22;30245;51.966;6.292;2022-08-24T04:03:56;26.40;56.50
44537;DHT22;30245;51.966;6.292;2022-08-24T04:06:22;26.40;56.50
44537;DHT22;30245;51.966;6.292;2022-08-24T04:08:49;26.40;56.60
44537;DHT22;30245;51.966;6.292;2022-08-24T04:11:19;26.40;56.70
44537;DHT22;30245;51.966;6.292;2022-08-24T04:13:46;26.30;56.70
44537;DHT22;30245;51.966;6.292;2022-08-24T04:16:14;26.30;56.80
44537;DHT22;30245;51.966;6.292;2022-08-24T04:18:41;26.30;56.80
44537;DHT22;30245;51.966;6.292;2022-08-24T04:21:19;26.30;56.80
44537;DHT22;30245;51.966;6.292;2022-08-24T04:23:45;26.30;56.80
44537;DHT22;30245;51.966;6.292;2022-08-24T04:26:11;26.30;56.80
44537;DHT22;30245;51.966;6.292;2022-08-24T04:28:37;26.30;56.80
44537;DHT22;30245;51.966;6.292;2022-08-24T04:31:04;26.30;56.70
44537;DHT22;30245;51.966;6.292;2022-08-24T04:33:30;26.30;56.70
44537;DHT22;30245;51.966;6.292;2022-08-24T04:35:56;26.30;56.70
44537;DHT22;30245;51.966;6.292;2022-08-24T04:38:22;26.20;56.60
44537;DHT22;30245;51.966;6.292;2022-08-24T04:40:48;26.10;56.60
44537;DHT22;30245;51.966;6.292;2022-08-24T04:43:15;26.00;56.70
44537;DHT22;30245;51.966;6.292;2022-08-24T04:45:42;25.90;56.80
44537;DHT22;30245;51.966;6.292;2022-08-24T04:48:09;25.90;56.90
44537;DHT22;30245;51.966;6.292;2022-08-24T04:50:37;25.90;57.00
44537;DHT22;30245;51.966;6.292;2022-08-24T04:53:04;25.90;57.00
44537;DHT22;30245;51.966;6.292;2022-08-24T04:55:31;25.90;57.10
44537;DHT22;30245;51.966;6.292;2022-08-24T04:57:57;25.80;57.30
44537;DHT22;30245;51.966;6.292;2022-08-24T05:00:23;25.80;57.40
44537;DHT22;30245;51.966;6.292;2022-08-24T05:02:49;25.70;57.40
44537;DHT22;30245;51.966;6.292;2022-08-24T05:05:14;25.70;57.40
44537;DHT22;30245;51.966;6.292;2022-08-24T05:07:40;25.70;57.30
44537;DHT22;30245;51.966;6.292;2022-08-24T05:10:08;25.70;57.30
44537;DHT22;30245;51.966;6.292;2022-08-24T05:12:36;25.70;57.40
44537;DHT22;30245;51.966;6.292;2022-08-24T05:15:03;25.70;57.40
44537;DHT22;30245;51.966;6.292;2022-08-24T05:17:28;25.60;57.40
44537;DHT22;30245;51.966;6.292;2022-08-24T05:19:54;25.60;57.40
44537;DHT22;30245;51.966;6.292;2022-08-24T05:22:21;25.70;57.60
44537;DHT22;30245;51.966;6.292;2022-08-24T05:24:46;25.70;57.40
44537;DHT22;30245;51.966;6.292;2022-08-24T05:27:12;25.70;57.40
44537;DHT22;30245;51.966;6.292;2022-08-24T05:29:37;25.80;57.50
44537;DHT22;30245;51.966;6.292;2022-08-24T05:32:03;25.80;57.40
44537;DHT22;30245;51.966;6.292;2022-08-24T05:34:29;25.80;57.30
44537;DHT22;30245;51.966;6.292;2022-08-24T05:36:55;25.90;57.30
44537;DHT22;30245;51.966;6.292;2022-08-24T05:39:20;25.90;57.20
44537;DHT22;30245;51.966;6.292;2022-08-24T05:41:46;26.00;57.20
44537;DHT22;30245;51.966;6.292;2022-08-24T05:44:13;26.00;57.10
44537;DHT22;30245;51.966;6.292;2022-08-24T05:46:39;26.10;57.10
44537;DHT22;30245;51.966;6.292;2022-08-24T05:49:05;26.20;57.00
44537;DHT22;30245;51.966;6.292;2022-08-24T05:51:33;26.20;57.00
44537;DHT22;30245;51.966;6.292;2022-08-24T05:53:58;26.30;57.10
44537;DHT22;30245;51.966;6.292;2022-08-24T05:56:25;26.30;57.00
44537;DHT22;30245;51.966;6.292;2022-08-24T05:58:50;26.30;56.90
44537;DHT22;30245;51.966;6.292;2022-08-24T06:01:24;26.40;57.00
44537;DHT22;30245;51.966;6.292;2022-08-24T06:03:51;26.40;57.60
44537;DHT22;30245;51.966;6.292;2022-08-24T06:06:19;26.50;56.90
44537;DHT22;30245;51.966;6.292;2022-08-24T06:08:46;26.60;57.00
44537;DHT22;30245;51.966;6.292;2022-08-24T06:11:19;26.60;56.90
44537;DHT22;30245;51.966;6.292;2022-08-24T06:13:52;26.70;56.70
44537;DHT22;30245;51.966;6.292;2022-08-24T06:16:19;26.80;56.50
44537;DHT22;30245;51.966;6.292;2022-08-24T06:18:45;26.80;56.60
44537;DHT22;30245;51.966;6.292;2022-08-24T06:21:13;26.80;56.60
44537;DHT22;30245;51.966;6.292;2022-08-24T06:23:40;26.90;56.70
44537;DHT22;30245;51.966;6.292;2022-08-24T06:26:07;26.90;56.70
44537;DHT22;30245;51.966;6.292;2022-08-24T06:28:51;26.90;56.70
44537;DHT22;30245;51.966;6.292;2022-08-24T06:31:18;27.00;56.80
44537;DHT22;30245;51.966;6.292;2022-08-24T06:33:44;27.00;56.80
44537;DHT22;30245;51.966;6.292;2022-08-24T06:36:10;27.00;56.70
44537;DHT22;30245;51.966;6.292;2022-08-24T06:38:36;27.10;56.70
44537;DHT22;30245;51.966;6.292;2022-08-24T06:41:02;27.20;56.70
44537;DHT22;30245;51.966;6.292;2022-08-24T06:43:28;27.30;56.60
44537;DHT22;30245;51.966;6.292;2022-08-24T06:45:55;27.40;56.40
44537;DHT22;30245;51.966;6.292;2022-08-24T06:48:21;27.50;56.30
44537;DHT22;30245;51.966;6.292;2022-08-24T06:50:47;27.60;56.10
44537;DHT22;30245;51.966;6.292;2022-08-24T06:53:13;27.60;55.90
44537;DHT22;30245;51.966;6.292;2022-08-24T06:55:52;27.70;55.80
44537;DHT22;30245;51.966;6.292;2022-08-24T06:58:19;27.80;55.70
44537;DHT22;30245;51.966;6.292;2022-08-24T07:00:46;27.90;55.50
44537;DHT22;30245;51.966;6.292;2022-08-24T07:03:13;28.00;55.40
44537;DHT22;30245;51.966;6.292;2022-08-24T07:05:38;28.10;55.20
44537;DHT22;30245;51.966;6.292;2022-08-24T07:08:05;28.20;55.10
44537;DHT22;30245;51.966;6.292;2022-08-24T07:10:31;28.30;55.00
44537;DHT22;30245;51.966;6.292;2022-08-24T07:12:57;28.30;54.80
44537;DHT22;30245;51.966;6.292;2022-08-24T07:15:23;28.40;54.70
44537;DHT22;30245;51.966;6.292;2022-08-24T07:17:49;28.40;54.60
44537;DHT22;30245;51.966;6.292;2022-08-24T07:20:16;28.50;54.50
44537;DHT22;30245;51.966;6.292;2022-08-24T07:22:42;28.60;54.30
44537;DHT22;30245;51.966;6.292;2022-08-24T07:25:10;28.70;54.20
44537;DHT22;30245;51.966;6.292;2022-08-24T07:27:36;28.70;54.00
44537;DHT22;30245;51.966;6.292;2022-08-24T07:30:02;28.80;53.90
44537;DHT22;30245;51.966;6.292;2022-08-24T07:32:27;29.00;53.90
44537;DHT22;30245;51.966;6.292;2022-08-24T07:34:53;29.10;53.80
44537;DHT22;30245;51.966;6.292;2022-08-24T07:37:19;29.10;53.60
44537;DHT22;30245;51.966;6.292;2022-08-24T07:39:44;29.20;53.50
44537;DHT22;30245;51.966;6.292;2022-08-24T07:42:10;29.20;53.30
44537;DHT22;30245;51.966;6.292;2022-08-24T07:44:37;29.20;53.20
44537;DHT22;30245;51.966;6.292;2022-08-24T07:47:03;29.30;53.10
44537;DHT22;30245;51.966;6.292;2022-08-24T07:49:29;29.40;53.00
44537;DHT22;30245;51.966;6.292;2022-08-24T07:51:56;29.40;52.70
44537;DHT22;30245;51.966;6.292;2022-08-24T07:54:22;29.50;52.60
44537;DHT22;30245;51.966;6.292;2022-08-24T07:56:48;29.60;52.40
44537;DHT22;30245;51.966;6.292;2022-08-24T07:59:15;29.70;52.20
44537;DHT22;30245;51.966;6.292;2022-08-24T08:01:41;29.70;52.10
44537;DHT22;30245;51.966;6.292;2022-08-24T08:04:07;29.80;51.90
44537;DHT22;30245;51.966;6.292;2022-08-24T08:06:32;29.80;51.60
44537;DHT22;30245;51.966;6.292;2022-08-24T08:08:58;29.90;51.30
44537;DHT22;30245;51.966;6.292;2022-08-24T08:11:24;30.00;51.20
44537;DHT22;30245;51.966;6.292;2022-08-24T08:13:50;30.10;51.00
44537;DHT22;30245;51.966;6.292;2022-08-24T08:16:15;30.20;50.60
44537;DHT22;30245;51.966;6.292;2022-08-24T08:18:42;30.30;50.30
44537;DHT22;30245;51.966;6.292;2022-08-24T08:21:08;30.40;50.00
44537;DHT22;30245;51.966;6.292;2022-08-24T08:23:57;30.60;50.00
44537;DHT22;30245;51.966;6.292;2022-08-24T08:26:47;30.60;49.60
44537;DHT22;30245;51.966;6.292;2022-08-24T08:29:15;30.70;49.50
44537;DHT22;30245;51.966;6.292;2022-08-24T08:31:42;30.80;48.90
44537;DHT22;30245;51.966;6.292;2022-08-24T08:34:08;30.80;48.30
44537;DHT22;30245;51.966;6.292;2022-08-24T08:36:34;31.00;48.10
44537;DHT22;30245;51.966;6.292;2022-08-24T08:39:00;31.00;47.70
44537;DHT22;30245;51.966;6.292;2022-08-24T09:00:30;31.80;45.90
44537;DHT22;30245;51.966;6.292;2022-08-24T09:03:35;31.90;45.30
44537;DHT22;30245;51.966;6.292;2022-08-24T09:06:16;32.00;44.90
44537;DHT22;30245;51.966;6.292;2022-08-24T09:17:06;32.50;43.50
44537;DHT22;30245;51.966;6.292;2022-08-24T09:22:21;32.80;42.80
44537;DHT22;30245;51.966;6.292;2022-08-24T09:27:34;33.00;42.40
44537;DHT22;30245;51.966;6.292;2022-08-24T09:30:21;33.20;42.00
44537;DHT22;30245;51.966;6.292;2022-08-24T09:32:58;33.20;42.10
44537;DHT22;30245;51.966;6.292;2022-08-24T09:38:20;33.60;41.40
44537;DHT22;30245;51.966;6.292;2022-08-24T09:58:49;34.60;39.60
44537;DHT22;30245;51.966;6.292;2022-08-24T10:01:00;34.80;40.00
44537;DHT22;30245;51.966;6.292;2022-08-24T10:06:58;35.20;38.70
44537;DHT22;30245;51.966;6.292;2022-08-24T10:12:37;35.30;37.90
44537;DHT22;30245;51.966;6.292;2022-08-24T10:15:10;35.40;37.60
44537;DHT22;30245;51.966;6.292;2022-08-24T10:20:22;35.90;37.30
44537;DHT22;30245;51.966;6.292;2022-08-24T10:32:08;37.30;35.10
44537;DHT22;30245;51.966;6.292;2022-08-24T10:54:22;41.10;31.00
44537;DHT22;30245;51.966;6.292;2022-08-24T10:57:01;41.30;30.40
44537;DHT22;30245;51.966;6.292;2022-08-24T11:02:29;41.80;30.00
44537;DHT22;30245;51.966;6.292;2022-08-24T11:05:01;41.80;29.70
44537;DHT22;30245;51.966;6.292;2022-08-24T11:07:27;41.90;29.80
44537;DHT22;30245;51.966;6.292;2022-08-24T11:09:59;42.00;29.50
44537;DHT22;30245;51.966;6.292;2022-08-24T11:14:53;42.00;29.60
44537;DHT22;30245;51.966;6.292;2022-08-24T11:17:24;42.00;29.20
44537;DHT22;30245;51.966;6.292;2022-08-24T11:19:50;42.10;29.20
44537;DHT22;30245;51.966;6.292;2022-08-24T11:22:56;41.90;28.90
44537;DHT22;30245;51.966;6.292;2022-08-24T11:25:26;41.70;29.20
44537;DHT22;30245;51.966;6.292;2022-08-24T11:28:02;41.80;29.30
44537;DHT22;30245;51.966;6.292;2022-08-24T11:30:29;42.00;29.00
44537;DHT22;30245;51.966;6.292;2022-08-24T11:32:58;42.00;29.00
44537;DHT22;30245;51.966;6.292;2022-08-24T11:38:06;42.20;28.70
44537;DHT22;30245;51.966;6.292;2022-08-24T11:40:44;42.10;28.60
44537;DHT22;30245;51.966;6.292;2022-08-24T11:43:23;42.10;28.80
44537;DHT22;30245;51.966;6.292;2022-08-24T11:46:13;42.20;28.80
44537;DHT22;30245;51.966;6.292;2022-08-24T11:51:15;42.50;28.50
44537;DHT22;30245;51.966;6.292;2022-08-24T11:54:06;42.50;28.30
44537;DHT22;30245;51.966;6.292;2022-08-24T11:56:51;42.30;28.20
44537;DHT22;30245;51.966;6.292;2022-08-24T12:02:04;42.00;28.30
44537;DHT22;30245;51.966;6.292;2022-08-24T12:07:40;41.90;28.40
44537;DHT22;30245;51.966;6.292;2022-08-24T12:13:37;41.70;28.30
44537;DHT22;30245;51.966;6.292;2022-08-24T12:15:38;41.60;28.30
44537;DHT22;30245;51.966;6.292;2022-08-24T12:20:50;41.30;28.50
44537;DHT22;30245;51.966;6.292;2022-08-24T12:24:20;41.30;28.50
44537;DHT22;30245;51.966;6.292;2022-08-24T12:26:35;41.30;28.60
44537;DHT22;30245;51.966;6.292;2022-08-24T12:29:27;41.30;28.70
44537;DHT22;30245;51.966;6.292;2022-08-24T12:37:30;40.90;28.90
44537;DHT22;30245;51.966;6.292;2022-08-24T12:42:48;40.60;29.50
44537;DHT22;30245;51.966;6.292;2022-08-24T12:45:16;40.50;29.60
44537;DHT22;30245;51.966;6.292;2022-08-24T12:53:08;40.50;29.50
44537;DHT22;30245;51.966;6.292;2022-08-24T13:01:05;41.10;29.30
44537;DHT22;30245;51.966;6.292;2022-08-24T13:03:37;41.30;29.00
44537;DHT22;30245;51.966;6.292;2022-08-24T13:06:09;41.20;28.70
44537;DHT22;30245;51.966;6.292;2022-08-24T13:08:41;41.00;28.70
44537;DHT22;30245;51.966;6.292;2022-08-24T13:11:13;40.80;28.70
44537;DHT22;30245;51.966;6.292;2022-08-24T13:14:16;40.70;28.70
44537;DHT22;30245;51.966;6.292;2022-08-24T13:22:36;40.60;28.70
44537;DHT22;30245;51.966;6.292;2022-08-24T13:24:44;40.60;29.00
44537;DHT22;30245;51.966;6.292;2022-08-24T13:30:06;40.60;29.20
44537;DHT22;30245;51.966;6.292;2022-08-24T13:32:42;40.60;29.10
44537;DHT22;30245;51.966;6.292;2022-08-24T13:35:30;40.80;29.00
44537;DHT22;30245;51.966;6.292;2022-08-24T13:38:22;41.00;28.70
44537;DHT22;30245;51.966;6.292;2022-08-24T13:40:59;41.00;28.70
44537;DHT22;30245;51.966;6.292;2022-08-24T13:43:29;40.90;28.60
44537;DHT22;30245;51.966;6.292;2022-08-24T13:46:17;40.80;28.60
44537;DHT22;30245;51.966;6.292;2022-08-24T13:51:44;40.50;28.80
44537;DHT22;30245;51.966;6.292;2022-08-24T13:54:18;40.50;28.70
44537;DHT22;30245;51.966;6.292;2022-08-24T13:57:08;40.30;28.60
44537;DHT22;30245;51.966;6.292;2022-08-24T14:00:10;40.20;28.70
44537;DHT22;30245;51.966;6.292;2022-08-24T14:10:54;41.20;28.10
44537;DHT22;30245;51.966;6.292;2022-08-24T14:19:58;41.50;27.90
44537;DHT22;30245;51.966;6.292;2022-08-24T14:25:16;41.60;27.80
44537;DHT22;30245;51.966;6.292;2022-08-24T14:33:04;41.80;27.50
44537;DHT22;30245;51.966;6.292;2022-08-24T14:41:18;42.80;27.20
44537;DHT22;30245;51.966;6.292;2022-08-24T14:44:07;43.10;27.20
44537;DHT22;30245;51.966;6.292;2022-08-24T14:46:53;43.30;27.20
44537;DHT22;30245;51.966;6.292;2022-08-24T14:50:16;43.50;27.40
44537;DHT22;30245;51.966;6.292;2022-08-24T14:52:45;43.70;27.20
44537;DHT22;30245;51.966;6.292;2022-08-24T15:01:00;43.70;27.20
44537;DHT22;30245;51.966;6.292;2022-08-24T15:06:36;43.60;27.20
44537;DHT22;30245;51.966;6.292;2022-08-24T15:11:48;43.80;27.00
44537;DHT22;30245;51.966;6.292;2022-08-24T15:14:40;44.10;26.80
44537;DHT22;30245;51.966;6.292;2022-08-24T15:17:11;44.30;26.50
44537;DHT22;30245;51.966;6.292;2022-08-24T15:22:37;44.10;26.50
44537;DHT22;30245;51.966;6.292;2022-08-24T15:25:36;44.10;26.60
44537;DHT22;30245;51.966;6.292;2022-08-24T15:28:33;44.30;26.50
44537;DHT22;30245;51.966;6.292;2022-08-24T15:31:03;44.40;26.50
44537;DHT22;30245;51.966;6.292;2022-08-24T15:33:31;44.50;26.40
44537;DHT22;30245;51.966;6.292;2022-08-24T15:36:10;44.70;26.30
44537;DHT22;30245;51.966;6.292;2022-08-24T15:38:38;44.90;26.20
44537;DHT22;30245;51.966;6.292;2022-08-24T15:43:52;45.10;25.90
44537;DHT22;30245;51.966;6.292;2022-08-24T15:46:27;45.20;25.80
44537;DHT22;30245;51.966;6.292;2022-08-24T15:49:00;45.30;25.70
44537;DHT22;30245;51.966;6.292;2022-08-24T15:51:45;45.40;25.70
44537;DHT22;30245;51.966;6.292;2022-08-24T15:54:55;45.50;25.50
44537;DHT22;30245;51.966;6.292;2022-08-24T15:59:52;45.40;25.40
44537;DHT22;30245;51.966;6.292;2022-08-24T16:02:22;45.60;25.50
44537;DHT22;30245;51.966;6.292;2022-08-24T16:05:19;45.70;25.50
44537;DHT22;30245;51.966;6.292;2022-08-24T16:08:19;45.80;25.50
44537;DHT22;30245;51.966;6.292;2022-08-24T16:18:17;45.80;25.30
44537;DHT22;30245;51.966;6.292;2022-08-24T16:20:45;45.90;25.70
44537;DHT22;30245;51.966;6.292;2022-08-24T16:23:21;46.00;25.10
44537;DHT22;30245;51.966;6.292;2022-08-24T16:25:47;46.00;25.00
44537;DHT22;30245;51.966;6.292;2022-08-24T16:30:53;45.80;25.00
44537;DHT22;30245;51.966;6.292;2022-08-24T16:35:55;45.80;25.00
44537;DHT22;30245;51.966;6.292;2022-08-24T16:38:20;45.80;25.00
44537;DHT22;30245;51.966;6.292;2022-08-24T16:40:46;45.90;25.10
44537;DHT22;30245;51.966;6.292;2022-08-24T16:43:12;45.70;25.00
44537;DHT22;30245;51.966;6.292;2022-08-24T16:45:38;45.80;25.00
44537;DHT22;30245;51.966;6.292;2022-08-24T16:48:04;45.80;25.50
44537;DHT22;30245;51.966;6.292;2022-08-24T16:50:30;45.80;25.00
44537;DHT22;30245;51.966;6.292;2022-08-24T16:52:55;45.80;24.90
44537;DHT22;30245;51.966;6.292;2022-08-24T16:55:21;45.60;24.90
44537;DHT22;30245;51.966;6.292;2022-08-24T16:57:47;45.50;25.00
44537;DHT22;30245;51.966;6.292;2022-08-24T17:00:16;45.30;25.00
44537;DHT22;30245;51.966;6.292;2022-08-24T17:02:44;45.40;25.20
44537;DHT22;30245;51.966;6.292;2022-08-24T17:05:11;45.30;25.30
44537;DHT22;30245;51.966;6.292;2022-08-24T17:07:37;45.30;25.50
44537;DHT22;30245;51.966;6.292;2022-08-24T17:10:04;45.20;25.40
44537;DHT22;30245;51.966;6.292;2022-08-24T17:12:31;44.90;25.50
44537;DHT22;30245;51.966;6.292;2022-08-24T17:15:00;44.50;25.70
44537;DHT22;30245;51.966;6.292;2022-08-24T17:17:27;44.00;25.90
44537;DHT22;30245;51.966;6.292;2022-08-24T17:19:54;43.60;26.20
44537;DHT22;30245;51.966;6.292;2022-08-24T17:22:20;43.10;26.40
44537;DHT22;30245;51.966;6.292;2022-08-24T17:24:46;42.80;26.70
44537;DHT22;30245;51.966;6.292;2022-08-24T17:27:13;42.50;26.80
44537;DHT22;30245;51.966;6.292;2022-08-24T17:29:39;42.20;27.00
44537;DHT22;30245;51.966;6.292;2022-08-24T17:32:05;41.90;27.20
44537;DHT22;30245;51.966;6.292;2022-08-24T17:34:31;41.50;27.40
44537;DHT22;30245;51.966;6.292;2022-08-24T17:36:57;41.30;27.70
44537;DHT22;30245;51.966;6.292;2022-08-24T17:39:23;41.10;27.80
44537;DHT22;30245;51.966;6.292;2022-08-24T17:41:50;40.80;27.90
44537;DHT22;30245;51.966;6.292;2022-08-24T17:44:22;40.60;27.90
44537;DHT22;30245;51.966;6.292;2022-08-24T17:46:52;40.40;28.10
44537;DHT22;30245;51.966;6.292;2022-08-24T17:49:18;40.20;28.20
44537;DHT22;30245;51.966;6.292;2022-08-24T17:51:44;40.00;28.30
44537;DHT22;30245;51.966;6.292;2022-08-24T17:54:10;39.90;28.50
44537;DHT22;30245;51.966;6.292;2022-08-24T17:56:36;39.70;28.70
44537;DHT22;30245;51.966;6.292;2022-08-24T17:59:13;39.50;28.90
44537;DHT22;30245;51.966;6.292;2022-08-24T18:01:45;39.30;29.00
44537;DHT22;30245;51.966;6.292;2022-08-24T18:04:11;39.10;29.10
44537;DHT22;30245;51.966;6.292;2022-08-24T18:06:37;39.00;29.30
44537;DHT22;30245;51.966;6.292;2022-08-24T18:09:06;38.90;29.50
44537;DHT22;30245;51.966;6.292;2022-08-24T18:11:35;38.70;29.60
44537;DHT22;30245;51.966;6.292;2022-08-24T18:14:01;38.60;29.80
44537;DHT22;30245;51.966;6.292;2022-08-24T18:16:27;38.40;30.00
44537;DHT22;30245;51.966;6.292;2022-08-24T18:18:53;38.30;30.00
44537;DHT22;30245;51.966;6.292;2022-08-24T18:21:20;38.20;30.20
44537;DHT22;30245;51.966;6.292;2022-08-24T18:23:47;38.00;30.40
44537;DHT22;30245;51.966;6.292;2022-08-24T18:26:18;37.80;30.50
44537;DHT22;30245;51.966;6.292;2022-08-24T18:28:45;37.70;30.70
44537;DHT22;30245;51.966;6.292;2022-08-24T18:31:11;37.60;30.80
44537;DHT22;30245;51.966;6.292;2022-08-24T18:33:37;37.50;31.00
44537;DHT22;30245;51.966;6.292;2022-08-24T18:36:03;37.40;31.10
44537;DHT22;30245;51.966;6.292;2022-08-24T18:38:28;37.20;31.10
44537;DHT22;30245;51.966;6.292;2022-08-24T18:40:54;37.20;31.30
44537;DHT22;30245;51.966;6.292;2022-08-24T18:43:22;37.10;31.40
44537;DHT22;30245;51.966;6.292;2022-08-24T18:45:48;37.00;31.60
44537;DHT22;30245;51.966;6.292;2022-08-24T18:48:14;36.90;31.70
44537;DHT22;30245;51.966;6.292;2022-08-24T18:50:39;36.80;31.90
44537;DHT22;30245;51.966;6.292;2022-08-24T18:53:06;36.70;32.10
44537;DHT22;30245;51.966;6.292;2022-08-24T18:55:32;36.60;32.20
44537;DHT22;30245;51.966;6.292;2022-08-24T18:57:58;36.50;32.30
44537;DHT22;30245;51.966;6.292;2022-08-24T19:00:24;36.40;32.50
44537;DHT22;30245;51.966;6.292;2022-08-24T19:02:49;36.30;32.60
44537;DHT22;30245;51.966;6.292;2022-08-24T19:05:16;36.20;32.70
44537;DHT22;30245;51.966;6.292;2022-08-24T19:07:44;36.10;32.90
44537;DHT22;30245;51.966;6.292;2022-08-24T19:10:12;36.00;32.70
44537;DHT22;30245;51.966;6.292;2022-08-24T19:12:54;35.90;32.90
44537;DHT22;30245;51.966;6.292;2022-08-24T19:15:20;35.90;33.10
44537;DHT22;30245;51.966;6.292;2022-08-24T19:17:46;35.80;33.20